Time,TemperatureF,DewpointF,PressureIn,WindDirection,WindDirectionDegrees,WindSpeedMPH,WindSpeedGustMPH,Humidity,HourlyPrecipIn,Conditions,Clouds,dailyrainin,SoftwareType,DateUTC
2013-04-17 00:03:00,48.6,-7.7,29.62,SW,221,0.0,0.0,9,0.00,,---,0.00,VWS V14.01,2013-04-17 07:03:00,
2013-04-17 00:09:00,48.0,-8.1,29.62,SW,223,4.9,4.9,9,0.00,,---,0.00,VWS V14.01,2013-04-17 07:09:00,
2013-04-17 00:14:00,48.0,-8.1,29.62,SW,226,6.3,6.3,9,0.00,,---,0.00,VWS V14.01,2013-04-17 07:14:00,
2013-04-17 00:19:00,48.4,-7.8,29.62,SW,231,4.0,5.4,9,0.00,,---,0.00,VWS V14.01,2013-04-17 07:19:00,
2013-04-17 00:24:00,48.4,-7.8,29.62,SW,220,0.0,0.0,9,0.00,,---,0.00,VWS V14.01,2013-04-17 07:24:00,
2013-04-17 00:29:00,48.4,-7.8,29.62,SW,223,5.8,5.8,9,0.00,,---,0.00,VWS V14.01,2013-04-17 07:29:00,
2013-04-17 00:34:00,47.8,-8.3,29.62,SW,225,4.0,4.0,9,0.00,,---,0.00,VWS V14.01,2013-04-17 07:34:00,
2013-04-17 00:39:00,47.8,-8.3,29.62,SW,225,6.3,6.3,9,0.00,,---,0.00,VWS V14.01,2013-04-17 07:39:00,
2013-04-17 00:45:00,47.5,-8.5,29.62,SW,224,4.9,5.4,9,0.00,,---,0.00,VWS V14.01,2013-04-17 07:45:00,
2013-04-17 00:50:00,47.1,-8.8,29.62,SW,221,0.0,4.9,9,0.00,,---,0.00,VWS V14.01,2013-04-17 07:50:00,
2013-04-17 00:55:00,47.1,-8.8,29.62,SW,224,4.0,4.0,9,0.00,,---,0.00,VWS V14.01,2013-04-17 07:55:00,
2013-04-17 01:00:00,47.1,-8.8,29.62,SW,219,3.6,5.4,9,0.00,,---,0.00,VWS V14.01,2013-04-17 08:00:00,
2013-04-17 01:05:00,47.3,-8.7,29.62,SW,224,5.4,5.4,9,0.00,,---,0.00,VWS V14.01,2013-04-17 08:05:00,
2013-04-17 01:10:00,47.1,-8.8,29.62,SW,214,5.4,5.4,9,0.00,,---,0.00,VWS V14.01,2013-04-17 08:10:00,
2013-04-17 01:15:00,46.9,-8.9,29.62,SW,222,4.0,4.0,9,0.00,,---,0.00,VWS V14.01,2013-04-17 08:15:00,
2013-04-17 01:20:00,47.3,-8.7,29.62,SW,226,5.8,5.8,9,0.00,,---,0.00,VWS V14.01,2013-04-17 08:20:00,
2013-04-17 01:25:00,48.0,-8.1,29.62,SW,225,6.3,6.3,9,0.00,,---,0.00,VWS V14.01,2013-04-17 08:25:00,
2013-04-17 01:30:00,48.2,-8.0,29.62,SW,214,2.2,2.2,9,0.00,,---,0.00,VWS V14.01,2013-04-17 08:30:00,
2013-04-17 01:35:00,48.2,-8.0,29.62,SW,224,0.0,0.0,9,0.00,,---,0.00,VWS V14.01,2013-04-17 08:35:00,
2013-04-17 01:41:00,48.2,-8.0,29.62,SW,224,0.0,0.0,9,0.00,,---,0.00,VWS V14.01,2013-04-17 08:41:00,
2013-04-17 01:46:00,47.8,-8.3,29.62,NNW,340,2.7,2.7,9,0.00,,---,0.00,VWS V14.01,2013-04-17 08:46:00,
2013-04-17 01:51:00,47.5,-8.5,29.62,WNW,301,2.7,2.7,9,0.00,,---,0.00,VWS V14.01,2013-04-17 08:51:00,
2013-04-17 01:56:00,47.1,-8.8,29.62,NNW,330,3.1,3.1,9,0.00,,---,0.00,VWS V14.01,2013-04-17 08:56:00,
2013-04-17 02:01:00,46.9,-8.9,29.62,NW,313,0.0,0.0,9,0.00,,---,0.00,VWS V14.01,2013-04-17 09:01:00,
2013-04-17 02:06:00,46.9,-8.9,29.62,NW,311,0.0,3.6,9,0.00,,---,0.00,VWS V14.01,2013-04-17 09:06:00,
2013-04-17 02:12:00,47.1,-8.8,29.62,NW,312,0.0,0.0,9,0.00,,---,0.00,VWS V14.01,2013-04-17 09:12:00,
2013-04-17 02:17:00,47.1,-8.8,29.62,NW,312,0.0,0.0,9,0.00,,---,0.00,VWS V14.01,2013-04-17 09:17:00,
2013-04-17 02:22:00,47.3,-8.7,29.62,WSW,251,0.0,0.0,9,0.00,,---,0.00,VWS V14.01,2013-04-17 09:22:00,
2013-04-17 02:27:00,47.8,-8.3,29.62,West,266,5.4,5.8,9,0.00,,---,0.00,VWS V14.01,2013-04-17 09:27:00,
2013-04-17 02:32:00,49.3,-7.2,29.62,West,273,7.6,10.1,9,0.00,,---,0.00,VWS V14.01,2013-04-17 09:32:00,
2013-04-17 02:37:00,49.6,-6.9,29.62,West,270,5.8,5.8,9,0.00,,---,0.00,VWS V14.01,2013-04-17 09:37:00,
2013-04-17 02:42:00,49.8,-6.7,29.62,WNW,285,5.4,5.8,9,0.00,,---,0.00,VWS V14.01,2013-04-17 09:42:00,
2013-04-17 02:47:00,50.0,-6.6,29.62,West,266,5.4,5.4,9,0.00,,---,0.00,VWS V14.01,2013-04-17 09:47:00,
2013-04-17 02:52:00,49.8,-6.7,29.62,WNW,286,6.3,6.3,9,0.00,,---,0.00,VWS V14.01,2013-04-17 09:52:00,
2013-04-17 02:57:00,49.5,-7.0,29.62,WNW,292,5.4,5.4,9,0.00,,---,0.00,VWS V14.01,2013-04-17 09:57:00,
2013-04-17 03:02:00,49.3,-7.2,29.62,West,260,10.5,11.0,9,0.00,,---,0.00,VWS V14.01,2013-04-17 10:02:00,
2013-04-17 03:07:00,49.3,-7.2,29.62,West,266,7.6,7.6,9,0.00,,---,0.00,VWS V14.01,2013-04-17 10:07:00,
2013-04-17 03:12:00,49.1,-7.3,29.62,West,267,11.0,11.0,9,0.00,,---,0.00,VWS V14.01,2013-04-17 10:12:00,
2013-04-17 03:18:00,48.9,-7.4,29.62,West,260,7.6,7.6,9,0.00,,---,0.00,VWS V14.01,2013-04-17 10:18:00,
2013-04-17 03:23:00,48.7,-7.6,29.62,WNW,301,11.0,11.0,9,0.00,,---,0.00,VWS V14.01,2013-04-17 10:23:00,
2013-04-17 03:28:00,48.7,-7.6,29.62,West,279,0.0,0.0,9,0.00,,---,0.00,VWS V14.01,2013-04-17 10:28:00,
2013-04-17 03:33:00,48.6,-7.7,29.62,WNW,293,3.1,3.1,9,0.00,,---,0.00,VWS V14.01,2013-04-17 10:33:00,
2013-04-17 03:38:00,48.6,-7.7,29.62,WNW,286,5.4,5.4,9,0.00,,---,0.00,VWS V14.01,2013-04-17 10:38:00,
2013-04-17 03:43:00,48.4,-7.8,29.62,NW,325,4.0,4.0,9,0.00,,---,0.00,VWS V14.01,2013-04-17 10:43:00,
2013-04-17 03:48:00,47.8,-8.3,29.62,NW,325,3.6,3.6,9,0.00,,---,0.00,VWS V14.01,2013-04-17 10:48:00,
2013-04-17 03:53:00,47.8,-8.3,29.62,NW,326,3.6,3.6,9,0.00,,---,0.00,VWS V14.01,2013-04-17 10:53:00,
2013-04-17 03:58:00,47.3,-8.7,29.62,NNW,334,8.7,8.7,9,0.00,,---,0.00,VWS V14.01,2013-04-17 10:58:00,
2013-04-17 04:03:00,47.1,-8.8,29.62,WNW,303,4.0,4.0,9,0.00,,---,0.00,VWS V14.01,2013-04-17 11:03:00,
2013-04-17 04:09:00,47.3,-8.7,29.62,NW,315,3.6,3.6,9,0.00,,---,0.00,VWS V14.01,2013-04-17 11:09:00,
2013-04-17 04:14:00,47.3,-8.7,29.62,NW,317,4.0,5.4,9,0.00,,---,0.00,VWS V14.01,2013-04-17 11:14:00,
2013-04-17 04:19:00,47.5,-8.5,29.62,WNW,293,4.9,4.9,9,0.00,,---,0.00,VWS V14.01,2013-04-17 11:19:00,
2013-04-17 04:24:00,47.5,-8.5,29.62,NW,320,8.3,8.3,9,0.00,,---,0.00,VWS V14.01,2013-04-17 11:24:00,
2013-04-17 04:29:00,47.5,-8.5,29.62,WNW,298,4.0,4.0,9,0.00,,---,0.00,VWS V14.01,2013-04-17 11:29:00,
2013-04-17 04:34:00,47.3,-8.7,29.62,NW,319,4.0,4.0,9,0.00,,---,0.00,VWS V14.01,2013-04-17 11:34:00,
2013-04-17 04:39:00,47.3,-8.7,29.62,WNW,302,4.0,4.0,9,0.00,,---,0.00,VWS V14.01,2013-04-17 11:39:00,
2013-04-17 04:44:00,47.1,-8.8,29.62,NW,318,2.7,2.7,9,0.00,,---,0.00,VWS V14.01,2013-04-17 11:44:00,
2013-04-17 04:49:00,47.3,-8.7,29.62,West,265,3.6,3.6,9,0.00,,---,0.00,VWS V14.01,2013-04-17 11:49:00,
2013-04-17 04:54:00,46.9,-8.9,29.62,WSW,254,0.0,0.0,9,0.00,,---,0.00,VWS V14.01,2013-04-17 11:54:00,
2013-04-17 04:59:00,46.4,-9.4,29.62,WSW,249,0.0,0.0,9,0.00,,---,0.00,VWS V14.01,2013-04-17 11:59:00,
2013-04-17 05:05:00,46.0,-7.5,29.62,WSW,253,0.0,0.0,10,0.00,,---,0.00,VWS V14.01,2013-04-17 12:05:00,
2013-04-17 05:10:00,45.5,-7.9,29.62,WSW,253,0.0,0.0,10,0.00,,---,0.00,VWS V14.01,2013-04-17 12:10:00,
2013-04-17 05:15:00,45.0,-8.3,29.62,WSW,253,0.0,0.0,10,0.00,,---,0.00,VWS V14.01,2013-04-17 12:15:00,
2013-04-17 05:20:00,44.2,-8.9,29.62,WSW,253,0.0,0.0,10,0.00,,---,0.00,VWS V14.01,2013-04-17 12:20:00,
2013-04-17 05:25:00,43.7,-9.3,29.62,WSW,253,0.0,0.0,10,0.00,,---,0.00,VWS V14.01,2013-04-17 12:25:00,
2013-04-17 05:30:00,43.3,-9.6,29.62,WSW,253,0.0,0.0,10,0.00,,---,0.00,VWS V14.01,2013-04-17 12:30:00,
2013-04-17 05:35:00,43.3,-9.6,29.62,WSW,253,0.0,0.0,10,0.00,,---,0.00,VWS V14.01,2013-04-17 12:35:00,
2013-04-17 05:40:00,42.6,-8.2,29.62,WSW,253,0.0,0.0,11,0.00,,---,0.00,VWS V14.01,2013-04-17 12:40:00,
2013-04-17 05:45:00,42.4,-8.4,29.62,WSW,253,0.0,0.0,11,0.00,,---,0.00,VWS V14.01,2013-04-17 12:45:00,
2013-04-17 05:50:00,42.4,-8.4,29.62,WSW,253,0.0,0.0,11,0.00,,---,0.00,VWS V14.01,2013-04-17 12:50:00,
2013-04-17 05:55:00,42.4,-8.4,29.62,WSW,244,0.0,0.0,11,0.00,,---,0.00,VWS V14.01,2013-04-17 12:55:00,
2013-04-17 06:01:00,42.3,-8.5,29.62,WSW,243,0.0,0.0,11,0.00,,---,0.00,VWS V14.01,2013-04-17 13:01:00,
2013-04-17 06:06:00,42.1,-8.6,29.62,WSW,243,0.0,0.0,11,0.00,,---,0.00,VWS V14.01,2013-04-17 13:06:00,
2013-04-17 06:11:00,41.5,-9.1,29.62,WSW,243,0.0,0.0,11,0.00,,---,0.00,VWS V14.01,2013-04-17 13:11:00,
2013-04-17 06:16:00,41.5,-9.1,29.62,WSW,243,0.0,0.0,11,0.00,,---,0.00,VWS V14.01,2013-04-17 13:16:00,
2013-04-17 06:22:00,41.7,-8.9,29.62,WSW,241,0.0,0.0,11,0.00,,---,0.00,VWS V14.01,2013-04-17 13:22:00,
2013-04-17 06:27:00,42.3,-8.5,29.62,WSW,245,0.0,0.0,11,0.00,,---,0.00,VWS V14.01,2013-04-17 13:27:00,
2013-04-17 06:32:00,42.3,-8.5,29.65,WSW,245,0.0,0.0,11,0.00,,---,0.00,VWS V14.01,2013-04-17 13:32:00,
2013-04-17 06:37:00,42.6,-8.2,29.65,WNW,298,0.0,0.0,11,0.00,,---,0.00,VWS V14.01,2013-04-17 13:37:00,
2013-04-17 06:42:00,43.3,-9.6,29.65,NW,304,0.0,0.0,10,0.00,,---,0.00,VWS V14.01,2013-04-17 13:42:00,
2013-04-17 06:47:00,44.4,-8.8,29.65,WNW,298,6.3,8.1,10,0.00,,---,0.00,VWS V14.01,2013-04-17 13:47:00,
2013-04-17 06:52:00,44.6,-8.6,29.65,WNW,292,3.1,3.1,10,0.00,,---,0.00,VWS V14.01,2013-04-17 13:52:00,
2013-04-17 06:57:00,44.4,-8.8,29.65,WSW,248,0.0,0.0,10,0.00,,---,0.00,VWS V14.01,2013-04-17 13:57:00,
2013-04-17 07:02:00,44.4,-8.8,29.65,NW,315,0.0,0.0,10,0.00,,---,0.00,VWS V14.01,2013-04-17 14:02:00,
2013-04-17 07:07:00,44.4,-8.8,29.65,North,0,0.0,0.0,10,0.00,,---,0.00,VWS V14.01,2013-04-17 14:07:00,
2013-04-17 07:12:00,44.6,-8.6,29.65,North,0,0.0,0.0,10,0.00,,---,0.00,VWS V14.01,2013-04-17 14:12:00,
2013-04-17 07:17:00,44.6,-8.6,29.65,North,0,0.0,0.0,10,0.00,,---,0.00,VWS V14.01,2013-04-17 14:17:00,
2013-04-17 07:22:00,45.3,-8.1,29.65,North,0,0.0,0.0,10,0.00,,---,0.00,VWS V14.01,2013-04-17 14:22:00,
2013-04-17 07:27:00,46.2,-7.4,29.68,NNW,338,0.0,0.0,10,0.00,,---,0.00,VWS V14.01,2013-04-17 14:27:00,
2013-04-17 07:32:00,46.2,-7.4,29.68,South,190,0.0,0.0,10,0.00,,---,0.00,VWS V14.01,2013-04-17 14:32:00,
2013-04-17 07:38:00,49.6,-6.9,29.65,SE,134,0.0,0.0,9,0.00,,---,0.00,VWS V14.01,2013-04-17 14:38:00,
2013-04-17 07:43:00,50.2,-6.5,29.65,SE,124,0.0,0.0,9,0.00,,---,0.00,VWS V14.01,2013-04-17 14:43:00,
2013-04-17 07:48:00,49.6,-6.9,29.65,NNE,14,5.4,5.8,9,0.00,,---,0.00,VWS V14.01,2013-04-17 14:48:00,
2013-04-17 07:53:00,48.7,-7.6,29.68,NNE,19,3.6,3.6,9,0.00,,---,0.00,VWS V14.01,2013-04-17 14:53:00,
2013-04-17 07:58:00,48.7,-7.6,29.68,ENE,65,0.0,3.1,9,0.00,,---,0.00,VWS V14.01,2013-04-17 14:58:00,
2013-04-17 08:03:00,48.7,-7.6,29.68,SW,224,5.8,5.8,9,0.00,,---,0.00,VWS V14.01,2013-04-17 15:03:00,
2013-04-17 08:08:00,49.6,-6.9,29.68,West,260,8.1,8.1,9,0.00,,---,0.00,VWS V14.01,2013-04-17 15:08:00,
2013-04-17 08:14:00,50.4,-6.3,29.68,WSW,255,10.5,12.8,9,0.00,,---,0.00,VWS V14.01,2013-04-17 15:14:00,
2013-04-17 08:19:00,50.4,-6.3,29.68,West,265,9.2,11.4,9,0.00,,---,0.00,VWS V14.01,2013-04-17 15:19:00,
2013-04-17 08:24:00,50.4,-6.3,29.68,WNW,297,4.9,4.9,9,0.00,,---,0.00,VWS V14.01,2013-04-17 15:24:00,
2013-04-17 08:29:00,50.5,-6.2,29.68,WNW,298,14.1,14.1,9,0.00,,---,0.00,VWS V14.01,2013-04-17 15:29:00,
2013-04-17 08:34:00,50.2,-6.5,29.68,WNW,301,10.5,10.5,9,0.00,,---,0.00,VWS V14.01,2013-04-17 15:34:00,
2013-04-17 08:39:00,50.0,-6.6,29.68,WNW,297,13.2,13.2,9,0.00,,---,0.00,VWS V14.01,2013-04-17 15:39:00,
2013-04-17 08:44:00,50.0,-6.6,29.68,WNW,292,11.0,11.0,9,0.00,,---,0.00,VWS V14.01,2013-04-17 15:44:00,
2013-04-17 08:50:00,49.8,-6.7,29.68,NW,324,8.7,8.7,9,0.00,,---,0.00,VWS V14.01,2013-04-17 15:50:00,
2013-04-17 08:55:00,50.0,-6.6,29.68,WNW,290,11.0,11.0,9,0.00,,---,0.00,VWS V14.01,2013-04-17 15:55:00,
2013-04-17 09:00:00,50.2,-6.5,29.68,West,275,6.7,6.7,9,0.00,,---,0.00,VWS V14.01,2013-04-17 16:00:00,
2013-04-17 09:05:00,51.1,-5.8,29.68,West,279,6.3,6.3,9,0.00,,---,0.00,VWS V14.01,2013-04-17 16:05:00,
2013-04-17 09:10:00,51.1,-5.8,29.68,WNW,302,9.6,9.6,9,0.00,,---,0.00,VWS V14.01,2013-04-17 16:10:00,
2013-04-17 09:15:00,52.5,-7.1,29.68,NNW,333,8.3,8.3,8,0.00,,---,0.00,VWS V14.01,2013-04-17 16:15:00,
2013-04-17 09:20:00,53.1,-6.7,29.68,NW,306,6.3,8.1,8,0.00,,---,0.00,VWS V14.01,2013-04-17 16:20:00,
2013-04-17 09:25:00,53.4,-6.4,29.68,West,268,3.6,3.6,8,0.00,,---,0.00,VWS V14.01,2013-04-17 16:25:00,
2013-04-17 09:30:00,53.8,-6.2,29.68,NW,315,6.7,7.6,8,0.00,,---,0.00,VWS V14.01,2013-04-17 16:30:00,
2013-04-17 09:36:00,54.3,-5.8,29.68,NW,310,8.3,8.3,8,0.00,,---,0.00,VWS V14.01,2013-04-17 16:36:00,
2013-04-17 09:41:00,54.5,-5.6,29.68,West,274,11.0,12.3,8,0.00,,---,0.00,VWS V14.01,2013-04-17 16:41:00,
2013-04-17 09:46:00,55.0,-5.2,29.68,NW,326,11.0,11.0,8,0.00,,---,0.00,VWS V14.01,2013-04-17 16:46:00,
2013-04-17 09:51:00,55.9,-7.3,29.68,North,353,6.3,6.3,7,0.00,,---,0.00,VWS V14.01,2013-04-17 16:51:00,
2013-04-17 09:56:00,56.3,-7.0,29.68,WNW,287,8.7,8.7,7,0.00,,---,0.00,VWS V14.01,2013-04-17 16:56:00,
2013-04-17 10:02:00,55.8,-7.4,29.68,West,261,10.1,10.1,7,0.00,,---,0.00,VWS V14.01,2013-04-17 17:02:00,
2013-04-17 10:07:00,55.6,-7.6,29.68,West,271,8.7,8.7,7,0.00,,---,0.00,VWS V14.01,2013-04-17 17:07:00,
2013-04-17 10:12:00,55.8,-7.4,29.68,SW,230,7.6,8.7,7,0.00,,---,0.00,VWS V14.01,2013-04-17 17:12:00,
2013-04-17 10:17:00,56.8,-6.6,29.68,WSW,251,8.7,11.0,7,0.00,,---,0.00,VWS V14.01,2013-04-17 17:17:00,
2013-04-17 10:22:00,56.8,-6.6,29.68,WNW,284,10.5,10.5,7,0.00,,---,0.00,VWS V14.01,2013-04-17 17:22:00,
2013-04-17 10:27:00,57.4,-6.2,29.68,WNW,285,8.1,8.3,7,0.00,,---,0.00,VWS V14.01,2013-04-17 17:27:00,
2013-04-17 10:32:00,57.7,-5.9,29.68,West,279,11.9,11.9,7,0.00,,---,0.00,VWS V14.01,2013-04-17 17:32:00,
2013-04-17 10:37:00,58.1,-5.7,29.68,West,271,10.1,10.1,7,0.00,,---,0.00,VWS V14.01,2013-04-17 17:37:00,
2013-04-17 10:43:00,59.0,-5.0,29.68,West,263,6.3,12.3,7,0.00,,---,0.00,VWS V14.01,2013-04-17 17:43:00,
2013-04-17 10:48:00,59.2,-4.9,29.68,West,276,7.6,7.6,7,0.00,,---,0.00,VWS V14.01,2013-04-17 17:48:00,
2013-04-17 10:53:00,58.5,-5.4,29.68,West,265,9.6,11.4,7,0.00,,---,0.00,VWS V14.01,2013-04-17 17:53:00,
2013-04-17 10:58:00,58.5,-5.4,29.68,WSW,256,8.1,8.1,7,0.00,,---,0.00,VWS V14.01,2013-04-17 17:58:00,
2013-04-17 11:03:00,59.7,-4.5,29.68,NW,317,12.8,12.8,7,0.00,,---,0.00,VWS V14.01,2013-04-17 18:03:00,
2013-04-17 11:08:00,58.5,-5.4,29.68,West,260,11.0,11.0,7,0.00,,---,0.00,VWS V14.01,2013-04-17 18:08:00,
2013-04-17 11:13:00,57.9,-5.8,29.68,WNW,290,10.5,10.5,7,0.00,,---,0.00,VWS V14.01,2013-04-17 18:13:00,
2013-04-17 11:18:00,57.7,-5.9,29.68,WSW,253,8.7,8.7,7,0.00,,---,0.00,VWS V14.01,2013-04-17 18:18:00,
2013-04-17 11:23:00,57.4,-6.2,29.68,West,261,15.4,15.4,7,0.00,,---,0.00,VWS V14.01,2013-04-17 18:23:00,
2013-04-17 11:29:00,56.5,-6.9,29.68,SW,217,5.8,11.9,7,0.00,,---,0.00,VWS V14.01,2013-04-17 18:29:00,
2013-04-17 11:34:00,56.5,-6.9,29.68,WSW,258,10.5,10.5,7,0.00,,---,0.00,VWS V14.01,2013-04-17 18:34:00,
2013-04-17 11:39:00,56.5,-6.9,29.71,West,265,8.3,8.3,7,0.00,,---,0.00,VWS V14.01,2013-04-17 18:39:00,
2013-04-17 11:44:00,56.7,-6.8,29.71,WNW,289,10.5,10.5,7,0.00,,---,0.00,VWS V14.01,2013-04-17 18:44:00,
2013-04-17 11:49:00,57.6,-6.1,29.71,West,267,10.5,10.5,7,0.00,,---,0.00,VWS V14.01,2013-04-17 18:49:00,
2013-04-17 11:55:00,58.6,-5.3,29.71,West,271,12.8,18.3,7,0.00,,---,0.00,VWS V14.01,2013-04-17 18:55:00,
2013-04-17 12:00:00,58.3,-5.6,29.71,NW,306,5.8,5.8,7,0.00,,---,0.00,VWS V14.01,2013-04-17 19:00:00,
2013-04-17 12:05:00,57.6,-6.1,29.71,West,262,12.3,19.7,7,0.00,,---,0.00,VWS V14.01,2013-04-17 19:05:00,
2013-04-17 12:10:00,56.3,-7.0,29.71,SSW,207,11.0,11.0,7,0.00,,---,0.00,VWS V14.01,2013-04-17 19:10:00,
2013-04-17 12:15:00,55.9,-7.3,29.71,West,265,8.3,8.3,7,0.00,,---,0.00,VWS V14.01,2013-04-17 19:15:00,
2013-04-17 12:20:00,57.9,-5.8,29.71,West,268,14.5,14.5,7,0.00,,---,0.00,VWS V14.01,2013-04-17 19:20:00,
2013-04-17 12:25:00,59.2,-4.9,29.71,WNW,294,11.0,11.0,7,0.00,,---,0.00,VWS V14.01,2013-04-17 19:25:00,
2013-04-17 12:30:00,60.1,-4.2,29.71,NW,304,5.8,7.2,7,0.00,,---,0.00,VWS V14.01,2013-04-17 19:30:00,
2013-04-17 12:35:00,60.1,-4.2,29.68,NW,321,12.3,12.3,7,0.00,,---,0.00,VWS V14.01,2013-04-17 19:35:00,
2013-04-17 12:40:00,59.5,-4.6,29.68,WNW,291,11.0,11.0,7,0.00,,---,0.00,VWS V14.01,2013-04-17 19:40:00,
2013-04-17 12:45:00,59.4,-4.8,29.68,NW,315,14.1,14.1,7,0.00,,---,0.00,VWS V14.01,2013-04-17 19:45:00,
2013-04-17 12:51:00,59.9,-4.3,29.68,WNW,299,7.6,10.5,7,0.00,,---,0.00,VWS V14.01,2013-04-17 19:51:00,
2013-04-17 12:56:00,60.4,-4.0,29.71,WNW,282,12.8,12.8,7,0.00,,---,0.00,VWS V14.01,2013-04-17 19:56:00,
2013-04-17 13:01:00,57.9,-5.8,29.71,WSW,256,15.4,16.8,7,0.00,,---,0.00,VWS V14.01,2013-04-17 20:01:00,
2013-04-17 13:06:00,57.2,-6.3,29.71,West,274,6.3,6.3,7,0.00,,---,0.00,VWS V14.01,2013-04-17 20:06:00,
2013-04-17 13:11:00,56.7,-6.8,29.71,West,276,6.3,8.1,7,0.00,,---,0.00,VWS V14.01,2013-04-17 20:11:00,
2013-04-17 13:16:00,56.8,-6.6,29.71,NW,314,6.3,8.3,7,0.00,,---,0.00,VWS V14.01,2013-04-17 20:16:00,
2013-04-17 13:21:00,59.0,-5.0,29.71,WNW,295,8.7,8.7,7,0.00,,---,0.00,VWS V14.01,2013-04-17 20:21:00,
2013-04-17 13:26:00,60.3,-4.1,29.68,WNW,290,11.0,11.0,7,0.00,,---,0.00,VWS V14.01,2013-04-17 20:26:00,
2013-04-17 13:31:00,59.2,-4.9,29.68,NNW,332,5.8,5.8,7,0.00,,---,0.00,VWS V14.01,2013-04-17 20:31:00,
2013-04-17 13:36:00,58.1,-5.7,29.71,WNW,302,11.0,11.0,7,0.00,,---,0.00,VWS V14.01,2013-04-17 20:36:00,
2013-04-17 13:42:00,57.6,-6.1,29.71,WNW,303,5.4,8.7,7,0.00,,---,0.00,VWS V14.01,2013-04-17 20:42:00,
2013-04-17 13:47:00,58.5,-5.4,29.71,WNW,303,6.3,15.0,7,0.00,,---,0.00,VWS V14.01,2013-04-17 20:47:00,
2013-04-17 13:52:00,58.5,-5.4,29.71,WNW,297,10.1,10.1,7,0.00,,---,0.00,VWS V14.01,2013-04-17 20:52:00,
2013-04-17 13:57:00,60.3,-4.1,29.71,NNW,342,3.1,5.4,7,0.00,,---,0.00,VWS V14.01,2013-04-17 20:57:00,
2013-04-17 14:02:00,60.8,-6.9,29.71,NW,310,17.9,17.9,6,0.00,,---,0.00,VWS V14.01,2013-04-17 21:02:00,
2013-04-17 14:08:00,60.6,-3.8,29.71,NW,308,11.9,11.9,7,0.00,,---,0.00,VWS V14.01,2013-04-17 21:08:00,
2013-04-17 14:13:00,60.3,-4.1,29.71,NW,304,12.8,12.8,7,0.00,,---,0.00,VWS V14.01,2013-04-17 21:13:00,
2013-04-17 14:18:00,60.6,-3.8,29.71,WNW,294,10.1,10.1,7,0.00,,---,0.00,VWS V14.01,2013-04-17 21:18:00,
2013-04-17 14:23:00,61.0,-6.7,29.71,NW,306,12.3,12.3,6,0.00,,---,0.00,VWS V14.01,2013-04-17 21:23:00,
2013-04-17 14:28:00,61.0,-6.7,29.71,WSW,252,14.5,14.5,6,0.00,,---,0.00,VWS V14.01,2013-04-17 21:28:00,
2013-04-17 14:33:00,60.4,-4.0,29.71,WSW,251,10.5,11.0,7,0.00,,---,0.00,VWS V14.01,2013-04-17 21:33:00,
2013-04-17 14:38:00,61.0,-6.7,29.71,WNW,284,8.7,8.7,6,0.00,,---,0.00,VWS V14.01,2013-04-17 21:38:00,
2013-04-17 14:44:00,61.2,-6.6,29.71,WNW,290,13.2,13.2,6,0.00,,---,0.00,VWS V14.01,2013-04-17 21:44:00,
2013-04-17 14:49:00,60.8,-6.9,29.71,West,274,8.3,8.7,6,0.00,,---,0.00,VWS V14.01,2013-04-17 21:49:00,
2013-04-17 14:54:00,61.2,-6.6,29.71,NW,314,8.7,8.7,6,0.00,,---,0.00,VWS V14.01,2013-04-17 21:54:00,
2013-04-17 14:59:00,62.1,-6.0,29.71,West,281,8.7,8.7,6,0.00,,---,0.00,VWS V14.01,2013-04-17 21:59:00,
2013-04-17 15:04:00,61.5,-6.3,29.71,WNW,299,13.2,13.2,6,0.00,,---,0.00,VWS V14.01,2013-04-17 22:04:00,
2013-04-17 15:09:00,61.0,-6.7,29.71,WNW,282,12.8,19.2,6,0.00,,---,0.00,VWS V14.01,2013-04-17 22:09:00,
2013-04-17 15:15:00,61.3,-6.5,29.71,West,274,21.0,21.0,6,0.00,,---,0.00,VWS V14.01,2013-04-17 22:15:00,
2013-04-17 15:20:00,60.8,-6.9,29.71,West,271,13.2,13.2,6,0.00,,---,0.00,VWS V14.01,2013-04-17 22:20:00,
2013-04-17 15:25:00,60.6,-3.8,29.71,WNW,285,8.1,8.1,7,0.00,,---,0.00,VWS V14.01,2013-04-17 22:25:00,
2013-04-17 15:30:00,60.8,-6.9,29.71,WNW,283,8.3,15.0,6,0.00,,---,0.00,VWS V14.01,2013-04-17 22:30:00,
2013-04-17 15:35:00,61.0,-6.7,29.71,West,263,12.8,15.4,6,0.00,,---,0.00,VWS V14.01,2013-04-17 22:35:00,
2013-04-17 15:40:00,61.0,-6.7,29.71,West,278,8.3,15.9,6,0.00,,---,0.00,VWS V14.01,2013-04-17 22:40:00,
2013-04-17 15:45:00,61.0,-6.7,29.71,WNW,286,6.3,12.8,6,0.00,,---,0.00,VWS V14.01,2013-04-17 22:45:00,
2013-04-17 15:50:00,60.8,-6.9,29.71,West,280,6.3,6.3,6,0.00,,---,0.00,VWS V14.01,2013-04-17 22:50:00,
2013-04-17 15:55:00,60.8,-6.9,29.71,WNW,283,12.3,12.3,6,0.00,,---,0.00,VWS V14.01,2013-04-17 22:55:00,
2013-04-17 16:01:00,61.2,-6.6,29.71,WSW,242,15.4,15.4,6,0.00,,---,0.00,VWS V14.01,2013-04-17 23:01:00,
2013-04-17 16:06:00,60.8,-6.9,29.71,WSW,257,8.7,8.7,6,0.00,,---,0.00,VWS V14.01,2013-04-17 23:06:00,
2013-04-17 16:11:00,61.2,-6.6,29.71,WNW,282,11.0,11.0,6,0.00,,---,0.00,VWS V14.01,2013-04-17 23:11:00,
2013-04-17 16:16:00,61.2,-6.6,29.71,WSW,254,8.1,11.0,6,0.00,,---,0.00,VWS V14.01,2013-04-17 23:16:00,
2013-04-17 16:21:00,60.8,-6.9,29.71,West,272,10.5,12.8,6,0.00,,---,0.00,VWS V14.01,2013-04-17 23:21:00,
2013-04-17 16:26:00,58.8,-5.2,29.71,West,275,8.7,12.8,7,0.00,,---,0.00,VWS V14.01,2013-04-17 23:26:00,
2013-04-17 16:32:00,58.5,-5.4,29.71,WSW,258,11.0,11.0,7,0.00,,---,0.00,VWS V14.01,2013-04-17 23:32:00,
2013-04-17 16:37:00,58.1,-5.7,29.71,West,268,5.8,5.8,7,0.00,,---,0.00,VWS V14.01,2013-04-17 23:37:00,
2013-04-17 16:42:00,58.8,-5.2,29.71,WSW,255,10.5,10.5,7,0.00,,---,0.00,VWS V14.01,2013-04-17 23:42:00,
2013-04-17 16:47:00,58.8,-5.2,29.71,West,268,10.1,10.1,7,0.00,,---,0.00,VWS V14.01,2013-04-17 23:47:00,
2013-04-17 16:53:00,58.8,-5.2,29.71,West,270,15.4,15.4,7,0.00,,---,0.00,VWS V14.01,2013-04-17 23:53:00,
2013-04-17 16:58:00,59.9,-4.3,29.71,WSW,250,11.4,14.1,7,0.00,,---,0.00,VWS V14.01,2013-04-17 23:58:00,
2013-04-17 17:03:00,59.0,-5.0,29.71,SW,236,8.1,13.2,7,0.00,,---,0.00,VWS V14.01,2013-04-18 00:03:00,
2013-04-17 17:08:00,57.9,-5.8,29.71,WSW,243,14.5,14.5,7,0.00,,---,0.00,VWS V14.01,2013-04-18 00:08:00,
2013-04-17 17:13:00,57.6,-6.1,29.71,West,259,13.6,13.6,7,0.00,,---,0.00,VWS V14.01,2013-04-18 00:13:00,
2013-04-17 17:18:00,57.4,-6.2,29.71,West,271,15.0,15.0,7,0.00,,---,0.00,VWS V14.01,2013-04-18 00:18:00,
2013-04-17 17:24:00,57.6,-6.1,29.74,WNW,282,8.1,8.1,7,0.00,,---,0.00,VWS V14.01,2013-04-18 00:24:00,
2013-04-17 17:29:00,58.1,-5.7,29.74,West,262,8.7,10.5,7,0.00,,---,0.00,VWS V14.01,2013-04-18 00:29:00,
2013-04-17 17:34:00,58.3,-5.6,29.74,West,272,10.5,10.5,7,0.00,,---,0.00,VWS V14.01,2013-04-18 00:34:00,
2013-04-17 17:39:00,58.5,-5.4,29.74,WNW,286,7.6,7.6,7,0.00,,---,0.00,VWS V14.01,2013-04-18 00:39:00,
2013-04-17 17:44:00,58.5,-5.4,29.74,WNW,287,12.8,12.8,7,0.00,,---,0.00,VWS V14.01,2013-04-18 00:44:00,
2013-04-17 17:49:00,56.8,-6.6,29.74,SW,229,8.3,12.8,7,0.00,,---,0.00,VWS V14.01,2013-04-18 00:49:00,
2013-04-17 17:55:00,57.0,-6.5,29.74,West,264,8.3,8.3,7,0.00,,---,0.00,VWS V14.01,2013-04-18 00:55:00,
2013-04-17 18:00:00,57.6,-6.1,29.74,West,270,5.8,8.7,7,0.00,,---,0.00,VWS V14.01,2013-04-18 01:00:00,
2013-04-17 18:05:00,57.9,-5.8,29.74,West,268,11.0,12.3,7,0.00,,---,0.00,VWS V14.01,2013-04-18 01:05:00,
2013-04-17 18:10:00,57.2,-6.3,29.74,WSW,254,15.9,15.9,7,0.00,,---,0.00,VWS V14.01,2013-04-18 01:10:00,
2013-04-17 18:15:00,56.3,-7.0,29.74,West,266,12.8,12.8,7,0.00,,---,0.00,VWS V14.01,2013-04-18 01:15:00,
2013-04-17 18:20:00,55.9,-7.3,29.74,WSW,251,13.6,13.6,7,0.00,,---,0.00,VWS V14.01,2013-04-18 01:20:00,
2013-04-17 18:25:00,55.6,-7.6,29.74,West,268,6.3,8.1,7,0.00,,---,0.00,VWS V14.01,2013-04-18 01:25:00,
2013-04-17 18:31:00,55.2,-5.1,29.74,West,266,11.4,11.4,8,0.00,,---,0.00,VWS V14.01,2013-04-18 01:31:00,
2013-04-17 18:36:00,54.9,-5.3,29.74,West,273,8.7,8.7,8,0.00,,---,0.00,VWS V14.01,2013-04-18 01:36:00,
2013-04-17 18:41:00,54.5,-5.6,29.74,NW,309,5.8,5.8,8,0.00,,---,0.00,VWS V14.01,2013-04-18 01:41:00,
2013-04-17 18:46:00,54.3,-5.8,29.74,WSW,257,8.3,8.3,8,0.00,,---,0.00,VWS V14.01,2013-04-18 01:46:00,
2013-04-17 18:51:00,54.3,-5.8,29.74,West,274,6.3,11.0,8,0.00,,---,0.00,VWS V14.01,2013-04-18 01:51:00,
2013-04-17 18:56:00,54.0,-6.0,29.77,West,274,4.9,5.8,8,0.00,,---,0.00,VWS V14.01,2013-04-18 01:56:00,
2013-04-17 19:02:00,53.6,-6.3,29.77,West,277,8.7,8.7,8,0.00,,---,0.00,VWS V14.01,2013-04-18 02:02:00,
2013-04-17 19:07:00,53.4,-6.4,29.77,WNW,300,6.3,11.0,8,0.00,,---,0.00,VWS V14.01,2013-04-18 02:07:00,
2013-04-17 19:12:00,53.4,-6.4,29.77,WSW,256,5.8,5.8,8,0.00,,---,0.00,VWS V14.01,2013-04-18 02:12:00,
2013-04-17 19:17:00,53.1,-6.7,29.77,West,267,7.6,8.7,8,0.00,,---,0.00,VWS V14.01,2013-04-18 02:17:00,
2013-04-17 19:22:00,53.1,-6.7,29.77,West,264,6.3,6.3,8,0.00,,---,0.00,VWS V14.01,2013-04-18 02:22:00,
2013-04-17 19:27:00,52.9,-6.8,29.77,West,272,5.4,8.1,8,0.00,,---,0.00,VWS V14.01,2013-04-18 02:27:00,
2013-04-17 19:32:00,52.5,-7.1,29.77,WNW,284,6.3,6.3,8,0.00,,---,0.00,VWS V14.01,2013-04-18 02:32:00,
2013-04-17 19:37:00,52.2,-7.4,29.77,West,270,8.1,8.1,8,0.00,,---,0.00,VWS V14.01,2013-04-18 02:37:00,
2013-04-17 19:43:00,52.2,-7.4,29.77,West,271,8.3,8.3,8,0.00,,---,0.00,VWS V14.01,2013-04-18 02:43:00,
2013-04-17 19:48:00,51.8,-7.7,29.77,WNW,291,5.8,7.6,8,0.00,,---,0.00,VWS V14.01,2013-04-18 02:48:00,
2013-04-17 19:53:00,51.8,-7.7,29.80,West,269,7.2,7.2,8,0.00,,---,0.00,VWS V14.01,2013-04-18 02:53:00,
2013-04-17 19:58:00,51.6,-5.4,29.80,WNW,282,5.4,6.3,9,0.00,,---,0.00,VWS V14.01,2013-04-18 02:58:00,
2013-04-17 20:03:00,51.4,-5.5,29.80,West,264,5.4,5.4,9,0.00,,---,0.00,VWS V14.01,2013-04-18 03:03:00,
2013-04-17 20:08:00,50.9,-5.9,29.80,WNW,288,5.8,8.1,9,0.00,,---,0.00,VWS V14.01,2013-04-18 03:08:00,
2013-04-17 20:13:00,50.5,-6.2,29.80,WNW,283,5.4,5.4,9,0.00,,---,0.00,VWS V14.01,2013-04-18 03:13:00,
2013-04-17 20:19:00,50.4,-6.3,29.80,West,279,7.6,10.5,9,0.00,,---,0.00,VWS V14.01,2013-04-18 03:19:00,
2013-04-17 20:24:00,50.4,-6.3,29.80,West,268,5.4,6.3,9,0.00,,---,0.00,VWS V14.01,2013-04-18 03:24:00,
2013-04-17 20:29:00,50.4,-6.3,29.80,West,274,6.3,8.1,9,0.00,,---,0.00,VWS V14.01,2013-04-18 03:29:00,
2013-04-17 20:34:00,50.2,-6.5,29.80,West,270,6.3,7.6,9,0.00,,---,0.00,VWS V14.01,2013-04-18 03:34:00,
2013-04-17 20:39:00,50.2,-6.5,29.83,West,265,8.7,8.7,9,0.00,,---,0.00,VWS V14.01,2013-04-18 03:39:00,
2013-04-17 20:45:00,50.2,-6.5,29.83,West,275,8.3,8.3,9,0.00,,---,0.00,VWS V14.01,2013-04-18 03:45:00,
2013-04-17 20:50:00,50.0,-6.6,29.83,West,275,8.3,8.3,9,0.00,,---,0.00,VWS V14.01,2013-04-18 03:50:00,
2013-04-17 20:55:00,49.8,-6.7,29.83,NW,309,6.7,8.3,9,0.00,,---,0.00,VWS V14.01,2013-04-18 03:55:00,
2013-04-17 21:00:00,49.6,-6.9,29.83,West,259,10.5,10.5,9,0.00,,---,0.00,VWS V14.01,2013-04-18 04:00:00,
2013-04-17 21:01:00,49.6,-6.9,29.83,WSW,254,5.4,10.5,9,0.00,,---,0.00,VWS V14.01,2013-04-18 04:01:00,
2013-04-17 21:02:00,49.6,-6.9,29.83,West,265,10.5,10.5,9,0.00,,---,0.00,VWS V14.01,2013-04-18 04:02:00,
2013-04-17 21:03:00,49.6,-6.9,29.83,West,271,5.8,10.5,9,0.00,,---,0.00,VWS V14.01,2013-04-18 04:03:00,
2013-04-17 21:08:00,49.3,-7.2,29.83,West,259,7.6,7.6,9,0.00,,---,0.00,VWS V14.01,2013-04-18 04:08:00,
2013-04-17 21:14:00,49.1,-7.3,29.86,West,269,6.3,6.3,9,0.00,,---,0.00,VWS V14.01,2013-04-18 04:14:00,
2013-04-17 21:19:00,49.1,-7.3,29.86,West,272,8.1,8.1,9,0.00,,---,0.00,VWS V14.01,2013-04-18 04:19:00,
2013-04-17 21:24:00,48.9,-7.4,29.86,West,273,7.6,7.6,9,0.00,,---,0.00,VWS V14.01,2013-04-18 04:24:00,
2013-04-17 21:29:00,48.7,-7.6,29.86,West,265,5.4,5.4,9,0.00,,---,0.00,VWS V14.01,2013-04-18 04:29:00,
2013-04-17 21:34:00,48.6,-7.7,29.86,West,268,8.1,8.1,9,0.00,,---,0.00,VWS V14.01,2013-04-18 04:34:00,
2013-04-17 21:39:00,48.6,-7.7,29.86,West,274,8.1,8.7,9,0.00,,---,0.00,VWS V14.01,2013-04-18 04:39:00,
2013-04-17 21:44:00,48.6,-7.7,29.86,WSW,258,8.1,8.1,9,0.00,,---,0.00,VWS V14.01,2013-04-18 04:44:00,
2013-04-17 21:50:00,48.6,-7.7,29.86,WNW,286,7.6,7.6,9,0.00,,---,0.00,VWS V14.01,2013-04-18 04:50:00,
2013-04-17 21:55:00,48.4,-7.8,29.86,West,263,6.3,6.3,9,0.00,,---,0.00,VWS V14.01,2013-04-18 04:55:00,
2013-04-17 22:00:00,48.2,-8.0,29.86,West,263,11.0,11.0,9,0.00,,---,0.00,VWS V14.01,2013-04-18 05:00:00,
2013-04-17 22:05:00,48.2,-8.0,29.86,West,262,7.2,7.2,9,0.00,,---,0.00,VWS V14.01,2013-04-18 05:05:00,
2013-04-17 22:11:00,48.2,-8.0,29.86,West,265,11.4,12.3,9,0.00,,---,0.00,VWS V14.01,2013-04-18 05:11:00,
2013-04-17 22:16:00,48.2,-8.0,29.86,WSW,257,13.2,13.2,9,0.00,,---,0.00,VWS V14.01,2013-04-18 05:16:00,
2013-04-17 22:21:00,48.2,-8.0,29.86,West,268,8.1,8.1,9,0.00,,---,0.00,VWS V14.01,2013-04-18 05:21:00,
2013-04-17 22:26:00,48.0,-8.1,29.86,West,269,10.1,10.1,9,0.00,,---,0.00,VWS V14.01,2013-04-18 05:26:00,
2013-04-17 22:32:00,48.0,-8.1,29.86,West,276,6.3,10.1,9,0.00,,---,0.00,VWS V14.01,2013-04-18 05:32:00,
2013-04-17 22:37:00,47.8,-8.3,29.86,West,266,8.7,9.6,9,0.00,,---,0.00,VWS V14.01,2013-04-18 05:37:00,
2013-04-17 22:42:00,47.7,-8.4,29.86,WNW,286,8.1,8.1,9,0.00,,---,0.00,VWS V14.01,2013-04-18 05:42:00,
2013-04-17 22:47:00,47.3,-8.7,29.86,WNW,286,8.1,8.1,9,0.00,,---,0.00,VWS V14.01,2013-04-18 05:47:00,
2013-04-17 22:52:00,47.1,-8.8,29.86,West,262,5.4,5.4,9,0.00,,---,0.00,VWS V14.01,2013-04-18 05:52:00,
2013-04-17 22:57:00,47.1,-8.8,29.86,West,263,6.3,6.3,9,0.00,,---,0.00,VWS V14.01,2013-04-18 05:57:00,
2013-04-17 23:02:00,46.9,-8.9,29.86,West,265,5.4,5.4,9,0.00,,---,0.00,VWS V14.01,2013-04-18 06:02:00,
2013-04-17 23:08:00,46.8,-9.1,29.86,West,281,7.6,10.1,9,0.00,,---,0.00,VWS V14.01,2013-04-18 06:08:00,
2013-04-17 23:13:00,46.8,-9.1,29.86,West,270,8.3,8.3,9,0.00,,---,0.00,VWS V14.01,2013-04-18 06:13:00,
2013-04-17 23:18:00,46.8,-9.1,29.86,West,259,8.1,8.1,9,0.00,,---,0.00,VWS V14.01,2013-04-18 06:18:00,
2013-04-17 23:23:00,46.8,-9.1,29.89,West,265,8.1,8.1,9,0.00,,---,0.00,VWS V14.01,2013-04-18 06:23:00,
2013-04-17 23:28:00,46.8,-9.1,29.89,WNW,293,5.8,7.6,9,0.00,,---,0.00,VWS V14.01,2013-04-18 06:28:00,
2013-04-17 23:33:00,46.4,-9.4,29.89,WNW,282,4.0,4.0,9,0.00,,---,0.00,VWS V14.01,2013-04-18 06:33:00,
2013-04-17 23:39:00,46.2,-7.4,29.89,West,277,3.1,4.0,10,0.00,,---,0.00,VWS V14.01,2013-04-18 06:39:00,
2013-04-17 23:44:00,45.9,-7.6,29.89,West,274,6.3,6.3,10,0.00,,---,0.00,VWS V14.01,2013-04-18 06:44:00,
2013-04-17 23:49:00,45.9,-7.6,29.89,West,280,4.0,4.0,10,0.00,,---,0.00,VWS V14.01,2013-04-18 06:49:00,
2013-04-17 23:54:00,45.9,-7.6,29.89,WNW,290,4.9,5.8,10,0.00,,---,0.00,VWS V14.01,2013-04-18 06:54:00,
2013-04-17 23:59:00,46.0,-7.5,29.89,WNW,298,5.8,5.8,10,0.00,,---,0.00,VWS V14.01,2013-04-18 06:59:00,